sensor_id;sensor_type;location;lat;lon;timestamp;P1;durP1;ratioP1;P2;durP2;ratioP2
18653;SDS011;9456;47.824;16.228;2024-01-30T00:00:36;20.63;;;13.40;;
18653;SDS011;9456;47.824;16.228;2024-01-30T00:03:04;17.23;;;13.03;;
18653;SDS011;9456;47.824;16.228;2024-01-30T00:05:32;18.60;;;13.27;;
18653;SDS011;9456;47.824;16.228;2024-01-30T00:08:00;16.40;;;12.73;;
18653;SDS011;9456;47.824;16.228;2024-01-30T00:10:28;15.03;;;12.50;;
18653;SDS011;9456;47.824;16.228;2024-01-30T00:12:56;19.47;;;13.80;;
18653;SDS011;9456;47.824;16.228;2024-01-30T00:15:24;17.70;;;14.17;;
18653;SDS011;9456;47.824;16.228;2024-01-30T00:17:52;20.93;;;15.30;;
18653;SDS011;9456;47.824;16.228;2024-01-30T00:20:21;26.40;;;17.80;;
18653;SDS011;9456;47.824;16.228;2024-01-30T00:22:50;26.03;;;17.33;;
18653;SDS011;9456;47.824;16.228;2024-01-30T00:25:18;23.57;;;15.47;;
18653;SDS011;9456;47.824;16.228;2024-01-30T00:27:46;17.90;;;14.23;;
18653;SDS011;9456;47.824;16.228;2024-01-30T00:30:15;17.37;;;13.30;;
18653;SDS011;9456;47.824;16.228;2024-01-30T00:32:43;19.10;;;12.73;;
18653;SDS011;9456;47.824;16.228;2024-01-30T00:35:11;18.15;;;11.75;;
18653;SDS011;9456;47.824;16.228;2024-01-30T00:37:39;16.03;;;11.87;;
18653;SDS011;9456;47.824;16.228;2024-01-30T00:40:08;15.00;;;11.80;;
18653;SDS011;9456;47.824;16.228;2024-01-30T00:42:36;16.33;;;12.80;;
18653;SDS011;9456;47.824;16.228;2024-01-30T00:45:05;17.57;;;11.60;;
18653;SDS011;9456;47.824;16.228;2024-01-30T00:47:33;13.53;;;10.50;;
18653;SDS011;9456;47.824;16.228;2024-01-30T00:50:01;18.37;;;11.90;;
18653;SDS011;9456;47.824;16.228;2024-01-30T00:52:29;16.60;;;11.90;;
18653;SDS011;9456;47.824;16.228;2024-01-30T00:54:57;17.60;;;12.07;;
18653;SDS011;9456;47.824;16.228;2024-01-30T00:57:25;16.33;;;11.90;;
18653;SDS011;9456;47.824;16.228;2024-01-30T00:59:53;14.63;;;11.90;;
18653;SDS011;9456;47.824;16.228;2024-01-30T01:02:21;19.17;;;12.13;;
18653;SDS011;9456;47.824;16.228;2024-01-30T01:04:49;14.17;;;11.40;;
18653;SDS011;9456;47.824;16.228;2024-01-30T01:07:17;16.03;;;11.30;;
18653;SDS011;9456;47.824;16.228;2024-01-30T01:09:45;16.97;;;11.70;;
18653;SDS011;9456;47.824;16.228;2024-01-30T01:12:13;15.10;;;12.03;;
18653;SDS011;9456;47.824;16.228;2024-01-30T01:14:41;14.53;;;11.10;;
18653;SDS011;9456;47.824;16.228;2024-01-30T01:17:09;15.67;;;10.50;;
18653;SDS011;9456;47.824;16.228;2024-01-30T01:19:37;14.23;;;11.00;;
18653;SDS011;9456;47.824;16.228;2024-01-30T01:22:05;14.90;;;11.50;;
18653;SDS011;9456;47.824;16.228;2024-01-30T01:24:35;12.93;;;10.50;;
18653;SDS011;9456;47.824;16.228;2024-01-30T01:27:04;15.57;;;11.83;;
18653;SDS011;9456;47.824;16.228;2024-01-30T01:29:31;13.33;;;10.03;;
18653;SDS011;9456;47.824;16.228;2024-01-30T01:31:59;12.13;;;10.17;;
18653;SDS011;9456;47.824;16.228;2024-01-30T01:34:27;18.57;;;11.33;;
18653;SDS011;9456;47.824;16.228;2024-01-30T01:36:56;13.07;;;10.33;;
18653;SDS011;9456;47.824;16.228;2024-01-30T01:39:24;15.13;;;11.13;;
18653;SDS011;9456;47.824;16.228;2024-01-30T01:41:52;15.13;;;10.73;;
18653;SDS011;9456;47.824;16.228;2024-01-30T01:44:20;14.50;;;11.17;;
18653;SDS011;9456;47.824;16.228;2024-01-30T01:46:48;12.40;;;9.90;;
18653;SDS011;9456;47.824;16.228;2024-01-30T01:49:16;16.20;;;11.33;;
18653;SDS011;9456;47.824;16.228;2024-01-30T01:51:44;14.87;;;11.13;;
18653;SDS011;9456;47.824;16.228;2024-01-30T01:54:12;12.77;;;10.27;;
18653;SDS011;9456;47.824;16.228;2024-01-30T01:56:40;14.20;;;10.07;;
18653;SDS011;9456;47.824;16.228;2024-01-30T01:59:09;14.63;;;10.33;;
18653;SDS011;9456;47.824;16.228;2024-01-30T02:01:38;14.13;;;10.87;;
18653;SDS011;9456;47.824;16.228;2024-01-30T02:04:06;13.27;;;10.23;;
18653;SDS011;9456;47.824;16.228;2024-01-30T02:06:34;15.17;;;10.33;;
18653;SDS011;9456;47.824;16.228;2024-01-30T02:09:02;18.87;;;11.13;;
18653;SDS011;9456;47.824;16.228;2024-01-30T02:11:30;15.57;;;11.63;;
18653;SDS011;9456;47.824;16.228;2024-01-30T02:14:01;16.90;;;12.13;;
18653;SDS011;9456;47.824;16.228;2024-01-30T02:16:26;15.07;;;12.47;;
18653;SDS011;9456;47.824;16.228;2024-01-30T02:18:54;15.70;;;11.83;;
18653;SDS011;9456;47.824;16.228;2024-01-30T02:21:22;17.53;;;12.43;;
18653;SDS011;9456;47.824;16.228;2024-01-30T02:23:50;13.37;;;11.40;;
18653;SDS011;9456;47.824;16.228;2024-01-30T02:26:18;15.00;;;11.40;;
18653;SDS011;9456;47.824;16.228;2024-01-30T02:28:46;15.10;;;10.37;;
18653;SDS011;9456;47.824;16.228;2024-01-30T02:31:14;14.30;;;10.40;;
18653;SDS011;9456;47.824;16.228;2024-01-30T02:33:43;12.13;;;10.10;;
18653;SDS011;9456;47.824;16.228;2024-01-30T02:36:11;15.07;;;10.80;;
18653;SDS011;9456;47.824;16.228;2024-01-30T02:38:39;15.53;;;10.50;;
18653;SDS011;9456;47.824;16.228;2024-01-30T02:41:07;13.00;;;10.27;;
18653;SDS011;9456;47.824;16.228;2024-01-30T02:43:35;12.00;;;9.37;;
18653;SDS011;9456;47.824;16.228;2024-01-30T02:46:03;15.00;;;10.97;;
18653;SDS011;9456;47.824;16.228;2024-01-30T02:48:31;15.40;;;10.20;;
18653;SDS011;9456;47.824;16.228;2024-01-30T02:51:01;13.27;;;11.87;;
18653;SDS011;9456;47.824;16.228;2024-01-30T02:53:29;13.60;;;10.55;;
18653;SDS011;9456;47.824;16.228;2024-01-30T02:55:57;14.70;;;11.00;;
18653;SDS011;9456;47.824;16.228;2024-01-30T02:58:25;13.37;;;10.80;;
18653;SDS011;9456;47.824;16.228;2024-01-30T03:00:53;14.30;;;10.63;;
18653;SDS011;9456;47.824;16.228;2024-01-30T03:03:21;15.67;;;10.53;;
18653;SDS011;9456;47.824;16.228;2024-01-30T03:05:50;12.90;;;9.43;;
18653;SDS011;9456;47.824;16.228;2024-01-30T03:08:18;14.43;;;10.27;;
18653;SDS011;9456;47.824;16.228;2024-01-30T03:10:46;11.83;;;9.37;;
18653;SDS011;9456;47.824;16.228;2024-01-30T03:13:14;13.77;;;10.07;;
18653;SDS011;9456;47.824;16.228;2024-01-30T03:15:42;12.60;;;9.87;;
18653;SDS011;9456;47.824;16.228;2024-01-30T03:18:10;11.87;;;8.80;;
18653;SDS011;9456;47.824;16.228;2024-01-30T03:20:38;10.73;;;9.20;;
18653;SDS011;9456;47.824;16.228;2024-01-30T03:23:06;12.93;;;9.63;;
18653;SDS011;9456;47.824;16.228;2024-01-30T03:25:34;10.10;;;9.03;;
18653;SDS011;9456;47.824;16.228;2024-01-30T03:28:02;11.63;;;8.53;;
18653;SDS011;9456;47.824;16.228;2024-01-30T03:30:30;14.00;;;8.57;;
18653;SDS011;9456;47.824;16.228;2024-01-30T03:32:58;15.60;;;9.25;;
18653;SDS011;9456;47.824;16.228;2024-01-30T03:35:26;11.93;;;9.47;;
18653;SDS011;9456;47.824;16.228;2024-01-30T03:37:54;12.50;;;9.47;;
18653;SDS011;9456;47.824;16.228;2024-01-30T03:40:22;10.93;;;9.27;;
18653;SDS011;9456;47.824;16.228;2024-01-30T03:42:50;11.67;;;9.23;;
18653;SDS011;9456;47.824;16.228;2024-01-30T03:45:18;10.17;;;8.67;;
18653;SDS011;9456;47.824;16.228;2024-01-30T03:50:23;15.30;;;10.60;;
18653;SDS011;9456;47.824;16.228;2024-01-30T03:52:52;14.20;;;10.07;;
18653;SDS011;9456;47.824;16.228;2024-01-30T03:55:20;13.37;;;10.30;;
18653;SDS011;9456;47.824;16.228;2024-01-30T03:57:48;12.77;;;9.63;;
18653;SDS011;9456;47.824;16.228;2024-01-30T04:00:16;11.23;;;9.63;;
18653;SDS011;9456;47.824;16.228;2024-01-30T04:02:44;12.93;;;9.53;;
18653;SDS011;9456;47.824;16.228;2024-01-30T04:05:12;12.83;;;9.80;;
18653;SDS011;9456;47.824;16.228;2024-01-30T04:07:40;11.37;;;9.80;;
18653;SDS011;9456;47.824;16.228;2024-01-30T04:10:09;11.57;;;9.07;;
18653;SDS011;9456;47.824;16.228;2024-01-30T04:12:37;13.60;;;10.00;;
18653;SDS011;9456;47.824;16.228;2024-01-30T04:15:05;13.00;;;10.37;;
18653;SDS011;9456;47.824;16.228;2024-01-30T04:17:33;13.07;;;10.90;;
18653;SDS011;9456;47.824;16.228;2024-01-30T04:20:01;14.57;;;9.03;;
18653;SDS011;9456;47.824;16.228;2024-01-30T04:22:30;11.27;;;9.23;;
18653;SDS011;9456;47.824;16.228;2024-01-30T04:24:58;12.60;;;9.50;;
18653;SDS011;9456;47.824;16.228;2024-01-30T04:27:26;14.00;;;9.53;;
18653;SDS011;9456;47.824;16.228;2024-01-30T04:29:54;13.20;;;10.40;;
18653;SDS011;9456;47.824;16.228;2024-01-30T04:32:22;12.27;;;8.97;;
18653;SDS011;9456;47.824;16.228;2024-01-30T04:34:50;10.17;;;8.10;;
18653;SDS011;9456;47.824;16.228;2024-01-30T04:37:18;12.80;;;9.00;;
18653;SDS011;9456;47.824;16.228;2024-01-30T04:39:46;12.17;;;8.10;;
18653;SDS011;9456;47.824;16.228;2024-01-30T04:42:14;9.67;;;8.47;;
18653;SDS011;9456;47.824;16.228;2024-01-30T04:44:42;13.87;;;8.00;;
18653;SDS011;9456;47.824;16.228;2024-01-30T04:47:10;14.20;;;9.10;;
18653;SDS011;9456;47.824;16.228;2024-01-30T04:49:39;11.53;;;8.90;;
18653;SDS011;9456;47.824;16.228;2024-01-30T04:52:07;11.10;;;8.67;;
18653;SDS011;9456;47.824;16.228;2024-01-30T04:54:35;14.80;;;10.67;;
18653;SDS011;9456;47.824;16.228;2024-01-30T04:57:03;13.10;;;9.30;;
18653;SDS011;9456;47.824;16.228;2024-01-30T04:59:31;14.63;;;10.23;;
18653;SDS011;9456;47.824;16.228;2024-01-30T05:01:59;15.67;;;10.13;;
18653;SDS011;9456;47.824;16.228;2024-01-30T05:04:27;14.33;;;9.73;;
18653;SDS011;9456;47.824;16.228;2024-01-30T05:06:55;11.73;;;9.20;;
18653;SDS011;9456;47.824;16.228;2024-01-30T05:09:23;14.43;;;10.77;;
18653;SDS011;9456;47.824;16.228;2024-01-30T05:11:51;14.57;;;10.57;;
18653;SDS011;9456;47.824;16.228;2024-01-30T05:14:19;14.43;;;10.93;;
18653;SDS011;9456;47.824;16.228;2024-01-30T05:16:47;13.57;;;8.97;;
18653;SDS011;9456;47.824;16.228;2024-01-30T05:19:15;14.07;;;10.17;;
18653;SDS011;9456;47.824;16.228;2024-01-30T05:21:43;16.60;;;10.13;;
18653;SDS011;9456;47.824;16.228;2024-01-30T05:24:12;19.40;;;10.25;;
18653;SDS011;9456;47.824;16.228;2024-01-30T05:26:40;16.40;;;10.20;;
18653;SDS011;9456;47.824;16.228;2024-01-30T05:29:08;14.90;;;9.53;;
18653;SDS011;9456;47.824;16.228;2024-01-30T05:31:36;14.73;;;9.73;;
18653;SDS011;9456;47.824;16.228;2024-01-30T05:34:04;14.53;;;9.47;;
18653;SDS011;9456;47.824;16.228;2024-01-30T05:36:32;12.20;;;9.27;;
18653;SDS011;9456;47.824;16.228;2024-01-30T05:39:00;11.40;;;9.17;;
18653;SDS011;9456;47.824;16.228;2024-01-30T05:41:28;15.07;;;9.50;;
18653;SDS011;9456;47.824;16.228;2024-01-30T05:43:56;14.43;;;10.70;;
18653;SDS011;9456;47.824;16.228;2024-01-30T05:46:24;18.63;;;12.73;;
18653;SDS011;9456;47.824;16.228;2024-01-30T05:48:52;16.30;;;12.13;;
18653;SDS011;9456;47.824;16.228;2024-01-30T05:51:20;14.03;;;10.20;;
18653;SDS011;9456;47.824;16.228;2024-01-30T05:53:48;17.53;;;11.63;;
18653;SDS011;9456;47.824;16.228;2024-01-30T05:56:16;16.37;;;10.80;;
18653;SDS011;9456;47.824;16.228;2024-01-30T05:58:44;11.67;;;9.57;;
18653;SDS011;9456;47.824;16.228;2024-01-30T06:01:12;15.63;;;9.90;;
18653;SDS011;9456;47.824;16.228;2024-01-30T06:03:40;16.57;;;9.80;;
18653;SDS011;9456;47.824;16.228;2024-01-30T06:06:08;11.17;;;8.37;;
18653;SDS011;9456;47.824;16.228;2024-01-30T06:08:37;11.07;;;8.67;;
18653;SDS011;9456;47.824;16.228;2024-01-30T06:11:04;12.87;;;8.70;;
18653;SDS011;9456;47.824;16.228;2024-01-30T06:13:32;13.77;;;9.80;;
18653;SDS011;9456;47.824;16.228;2024-01-30T06:16:01;21.47;;;15.87;;
18653;SDS011;9456;47.824;16.228;2024-01-30T06:18:29;22.67;;;16.83;;
18653;SDS011;9456;47.824;16.228;2024-01-30T06:20:57;34.47;;;25.87;;
18653;SDS011;9456;47.824;16.228;2024-01-30T06:23:25;31.10;;;26.53;;
18653;SDS011;9456;47.824;16.228;2024-01-30T06:25:53;28.03;;;22.37;;
18653;SDS011;9456;47.824;16.228;2024-01-30T06:28:21;29.00;;;21.73;;
18653;SDS011;9456;47.824;16.228;2024-01-30T06:30:49;22.13;;;19.07;;
18653;SDS011;9456;47.824;16.228;2024-01-30T06:33:17;31.37;;;18.47;;
18653;SDS011;9456;47.824;16.228;2024-01-30T06:35:45;21.53;;;17.33;;
18653;SDS011;9456;47.824;16.228;2024-01-30T06:38:13;18.80;;;14.70;;
18653;SDS011;9456;47.824;16.228;2024-01-30T06:40:41;15.23;;;10.80;;
18653;SDS011;9456;47.824;16.228;2024-01-30T06:43:09;12.17;;;8.60;;
18653;SDS011;9456;47.824;16.228;2024-01-30T06:45:37;8.70;;;7.50;;
18653;SDS011;9456;47.824;16.228;2024-01-30T06:48:07;15.30;;;10.93;;
18653;SDS011;9456;47.824;16.228;2024-01-30T06:50:34;13.93;;;11.30;;
18653;SDS011;9456;47.824;16.228;2024-01-30T06:53:02;17.03;;;10.90;;
18653;SDS011;9456;47.824;16.228;2024-01-30T06:55:30;17.93;;;9.97;;
18653;SDS011;9456;47.824;16.228;2024-01-30T06:58:00;11.00;;;9.77;;
18653;SDS011;9456;47.824;16.228;2024-01-30T07:00:29;14.17;;;8.77;;
18653;SDS011;9456;47.824;16.228;2024-01-30T07:02:57;10.00;;;7.90;;
18653;SDS011;9456;47.824;16.228;2024-01-30T07:05:25;8.33;;;7.53;;
18653;SDS011;9456;47.824;16.228;2024-01-30T07:07:53;10.07;;;8.93;;
18653;SDS011;9456;47.824;16.228;2024-01-30T07:10:21;12.57;;;7.93;;
18653;SDS011;9456;47.824;16.228;2024-01-30T07:12:50;9.97;;;7.60;;
18653;SDS011;9456;47.824;16.228;2024-01-30T07:15:18;12.27;;;7.87;;
18653;SDS011;9456;47.824;16.228;2024-01-30T07:17:46;11.20;;;8.37;;
18653;SDS011;9456;47.824;16.228;2024-01-30T07:20:14;11.23;;;9.67;;
18653;SDS011;9456;47.824;16.228;2024-01-30T07:22:42;12.37;;;10.43;;
18653;SDS011;9456;47.824;16.228;2024-01-30T07:25:19;12.87;;;10.10;;
18653;SDS011;9456;47.824;16.228;2024-01-30T07:27:47;11.53;;;8.40;;
18653;SDS011;9456;47.824;16.228;2024-01-30T07:30:15;11.50;;;7.17;;
18653;SDS011;9456;47.824;16.228;2024-01-30T07:32:43;9.13;;;7.57;;
18653;SDS011;9456;47.824;16.228;2024-01-30T07:35:12;9.23;;;7.33;;
18653;SDS011;9456;47.824;16.228;2024-01-30T07:37:41;12.13;;;6.77;;
18653;SDS011;9456;47.824;16.228;2024-01-30T07:40:10;8.70;;;6.97;;
18653;SDS011;9456;47.824;16.228;2024-01-30T07:42:38;8.67;;;6.70;;
18653;SDS011;9456;47.824;16.228;2024-01-30T07:45:06;7.73;;;6.67;;
18653;SDS011;9456;47.824;16.228;2024-01-30T07:47:34;10.53;;;7.40;;
18653;SDS011;9456;47.824;16.228;2024-01-30T07:50:02;10.80;;;6.53;;
18653;SDS011;9456;47.824;16.228;2024-01-30T07:52:30;11.73;;;6.53;;
18653;SDS011;9456;47.824;16.228;2024-01-30T07:58:02;17.90;;;11.07;;
18653;SDS011;9456;47.824;16.228;2024-01-30T08:00:30;11.50;;;8.33;;
18653;SDS011;9456;47.824;16.228;2024-01-30T08:02:59;12.93;;;7.67;;
18653;SDS011;9456;47.824;16.228;2024-01-30T08:05:27;11.70;;;7.43;;
18653;SDS011;9456;47.824;16.228;2024-01-30T08:07:55;10.50;;;7.13;;
18653;SDS011;9456;47.824;16.228;2024-01-30T08:10:23;11.40;;;6.87;;
18653;SDS011;9456;47.824;16.228;2024-01-30T08:12:51;12.43;;;10.07;;
18653;SDS011;9456;47.824;16.228;2024-01-30T08:15:19;11.40;;;9.00;;
18653;SDS011;9456;47.824;16.228;2024-01-30T08:17:47;9.63;;;8.37;;
18653;SDS011;9456;47.824;16.228;2024-01-30T08:20:15;9.93;;;8.97;;
18653;SDS011;9456;47.824;16.228;2024-01-30T08:22:45;9.80;;;8.57;;
18653;SDS011;9456;47.824;16.228;2024-01-30T08:25:13;10.60;;;8.80;;
18653;SDS011;9456;47.824;16.228;2024-01-30T08:27:41;10.47;;;9.10;;
18653;SDS011;9456;47.824;16.228;2024-01-30T08:30:10;9.50;;;8.60;;
18653;SDS011;9456;47.824;16.228;2024-01-30T08:32:39;9.20;;;8.30;;
18653;SDS011;9456;47.824;16.228;2024-01-30T08:35:08;9.80;;;8.53;;
18653;SDS011;9456;47.824;16.228;2024-01-30T08:37:36;11.67;;;10.47;;
18653;SDS011;9456;47.824;16.228;2024-01-30T08:40:05;9.47;;;7.87;;
18653;SDS011;9456;47.824;16.228;2024-01-30T08:42:33;9.17;;;7.97;;
18653;SDS011;9456;47.824;16.228;2024-01-30T08:45:01;9.27;;;8.30;;
18653;SDS011;9456;47.824;16.228;2024-01-30T08:47:29;9.13;;;8.17;;
18653;SDS011;9456;47.824;16.228;2024-01-30T08:49:57;12.80;;;9.27;;
18653;SDS011;9456;47.824;16.228;2024-01-30T08:52:25;12.63;;;11.33;;
18653;SDS011;9456;47.824;16.228;2024-01-30T08:54:53;10.13;;;9.13;;
18653;SDS011;9456;47.824;16.228;2024-01-30T08:57:22;9.80;;;8.90;;
18653;SDS011;9456;47.824;16.228;2024-01-30T08:59:50;11.50;;;8.87;;
18653;SDS011;9456;47.824;16.228;2024-01-30T09:02:18;10.67;;;9.60;;
18653;SDS011;9456;47.824;16.228;2024-01-30T09:04:46;11.37;;;8.33;;
18653;SDS011;9456;47.824;16.228;2024-01-30T09:07:14;11.70;;;9.30;;
18653;SDS011;9456;47.824;16.228;2024-01-30T09:09:51;10.40;;;9.03;;
18653;SDS011;9456;47.824;16.228;2024-01-30T09:12:20;13.30;;;11.90;;
18653;SDS011;9456;47.824;16.228;2024-01-30T09:14:48;10.80;;;8.97;;
18653;SDS011;9456;47.824;16.228;2024-01-30T09:17:16;9.37;;;8.23;;
18653;SDS011;9456;47.824;16.228;2024-01-30T09:19:45;9.30;;;7.87;;
18653;SDS011;9456;47.824;16.228;2024-01-30T09:22:12;12.20;;;8.43;;
18653;SDS011;9456;47.824;16.228;2024-01-30T09:24:40;9.50;;;8.60;;
18653;SDS011;9456;47.824;16.228;2024-01-30T09:27:08;10.40;;;9.27;;
18653;SDS011;9456;47.824;16.228;2024-01-30T09:29:44;9.07;;;8.17;;
18653;SDS011;9456;47.824;16.228;2024-01-30T09:32:12;11.17;;;9.60;;
18653;SDS011;9456;47.824;16.228;2024-01-30T09:34:40;9.97;;;8.47;;
18653;SDS011;9456;47.824;16.228;2024-01-30T09:37:08;12.70;;;11.00;;
18653;SDS011;9456;47.824;16.228;2024-01-30T09:39:36;11.53;;;9.53;;
18653;SDS011;9456;47.824;16.228;2024-01-30T09:42:09;10.10;;;8.70;;
18653;SDS011;9456;47.824;16.228;2024-01-30T09:44:34;11.17;;;9.97;;
18653;SDS011;9456;47.824;16.228;2024-01-30T09:47:02;14.70;;;13.13;;
18653;SDS011;9456;47.824;16.228;2024-01-30T09:49:31;11.80;;;10.53;;
18653;SDS011;9456;47.824;16.228;2024-01-30T09:51:59;12.10;;;8.73;;
18653;SDS011;9456;47.824;16.228;2024-01-30T09:54:27;11.43;;;10.23;;
18653;SDS011;9456;47.824;16.228;2024-01-30T09:56:55;12.13;;;8.60;;
18653;SDS011;9456;47.824;16.228;2024-01-30T09:59:23;12.40;;;11.10;;
18653;SDS011;9456;47.824;16.228;2024-01-30T10:01:51;8.60;;;7.80;;
18653;SDS011;9456;47.824;16.228;2024-01-30T10:04:19;10.10;;;9.10;;
18653;SDS011;9456;47.824;16.228;2024-01-30T10:06:47;11.43;;;10.10;;
18653;SDS011;9456;47.824;16.228;2024-01-30T10:09:15;10.47;;;8.60;;
18653;SDS011;9456;47.824;16.228;2024-01-30T10:11:43;9.20;;;8.23;;
18653;SDS011;9456;47.824;16.228;2024-01-30T10:14:11;10.30;;;8.70;;
18653;SDS011;9456;47.824;16.228;2024-01-30T10:16:39;9.50;;;8.40;;
18653;SDS011;9456;47.824;16.228;2024-01-30T10:19:07;11.80;;;7.90;;
18653;SDS011;9456;47.824;16.228;2024-01-30T10:21:35;9.83;;;8.67;;
18653;SDS011;9456;47.824;16.228;2024-01-30T10:24:04;12.20;;;10.93;;
18653;SDS011;9456;47.824;16.228;2024-01-30T10:26:40;13.53;;;10.93;;
18653;SDS011;9456;47.824;16.228;2024-01-30T10:29:08;8.93;;;8.03;;
18653;SDS011;9456;47.824;16.228;2024-01-30T10:31:36;10.67;;;9.50;;
18653;SDS011;9456;47.824;16.228;2024-01-30T10:34:04;12.10;;;8.33;;
18653;SDS011;9456;47.824;16.228;2024-01-30T10:36:32;11.47;;;10.30;;
18653;SDS011;9456;47.824;16.228;2024-01-30T10:39:00;14.93;;;11.00;;
18653;SDS011;9456;47.824;16.228;2024-01-30T10:41:28;14.50;;;11.67;;
18653;SDS011;9456;47.824;16.228;2024-01-30T10:43:58;11.70;;;9.40;;
18653;SDS011;9456;47.824;16.228;2024-01-30T10:46:25;12.93;;;9.13;;
18653;SDS011;9456;47.824;16.228;2024-01-30T10:48:55;11.27;;;9.40;;
18653;SDS011;9456;47.824;16.228;2024-01-30T10:51:21;12.93;;;9.97;;
18653;SDS011;9456;47.824;16.228;2024-01-30T10:53:49;13.30;;;9.63;;
18653;SDS011;9456;47.824;16.228;2024-01-30T10:56:17;9.77;;;8.77;;
18653;SDS011;9456;47.824;16.228;2024-01-30T10:58:45;9.33;;;8.30;;
18653;SDS011;9456;47.824;16.228;2024-01-30T11:01:13;9.00;;;8.10;;
18653;SDS011;9456;47.824;16.228;2024-01-30T11:03:41;10.53;;;9.27;;
18653;SDS011;9456;47.824;16.228;2024-01-30T11:06:11;12.70;;;9.10;;
18653;SDS011;9456;47.824;16.228;2024-01-30T11:08:39;11.60;;;9.27;;
18653;SDS011;9456;47.824;16.228;2024-01-30T11:11:09;12.40;;;9.87;;
18653;SDS011;9456;47.824;16.228;2024-01-30T11:13:36;9.43;;;8.00;;
18653;SDS011;9456;47.824;16.228;2024-01-30T11:16:05;8.70;;;7.73;;
18653;SDS011;9456;47.824;16.228;2024-01-30T11:18:33;10.80;;;8.00;;
18653;SDS011;9456;47.824;16.228;2024-01-30T11:21:01;8.50;;;7.60;;
18653;SDS011;9456;47.824;16.228;2024-01-30T11:23:36;8.20;;;7.33;;
18653;SDS011;9456;47.824;16.228;2024-01-30T11:26:04;11.80;;;7.77;;
18653;SDS011;9456;47.824;16.228;2024-01-30T11:28:33;8.77;;;6.97;;
18653;SDS011;9456;47.824;16.228;2024-01-30T11:31:05;7.50;;;6.60;;
18653;SDS011;9456;47.824;16.228;2024-01-30T11:33:33;8.63;;;7.13;;
18653;SDS011;9456;47.824;16.228;2024-01-30T11:36:01;8.83;;;7.63;;
18653;SDS011;9456;47.824;16.228;2024-01-30T11:38:29;10.07;;;6.90;;
18653;SDS011;9456;47.824;16.228;2024-01-30T11:40:57;7.90;;;6.70;;
18653;SDS011;9456;47.824;16.228;2024-01-30T11:43:25;7.73;;;6.93;;
18653;SDS011;9456;47.824;16.228;2024-01-30T11:45:53;8.87;;;6.40;;
18653;SDS011;9456;47.824;16.228;2024-01-30T11:48:21;8.07;;;6.70;;
18653;SDS011;9456;47.824;16.228;2024-01-30T11:50:50;7.73;;;6.90;;
18653;SDS011;9456;47.824;16.228;2024-01-30T11:53:18;7.57;;;6.80;;
18653;SDS011;9456;47.824;16.228;2024-01-30T11:55:50;7.53;;;6.80;;
18653;SDS011;9456;47.824;16.228;2024-01-30T11:58:18;7.83;;;6.30;;
18653;SDS011;9456;47.824;16.228;2024-01-30T12:00:53;7.10;;;6.33;;
18653;SDS011;9456;47.824;16.228;2024-01-30T12:03:21;8.03;;;6.50;;
18653;SDS011;9456;47.824;16.228;2024-01-30T12:05:55;6.67;;;6.07;;
18653;SDS011;9456;47.824;16.228;2024-01-30T12:08:24;8.60;;;6.13;;
18653;SDS011;9456;47.824;16.228;2024-01-30T12:10:56;7.87;;;6.47;;
18653;SDS011;9456;47.824;16.228;2024-01-30T12:13:25;8.03;;;6.10;;
18653;SDS011;9456;47.824;16.228;2024-01-30T12:15:53;7.33;;;5.90;;
18653;SDS011;9456;47.824;16.228;2024-01-30T12:18:21;9.33;;;6.60;;
18653;SDS011;9456;47.824;16.228;2024-01-30T12:20:57;8.33;;;7.43;;
18653;SDS011;9456;47.824;16.228;2024-01-30T12:23:26;12.00;;;9.33;;
18653;SDS011;9456;47.824;16.228;2024-01-30T12:25:54;8.77;;;7.57;;
18653;SDS011;9456;47.824;16.228;2024-01-30T12:28:22;11.73;;;7.43;;
18653;SDS011;9456;47.824;16.228;2024-01-30T12:30:50;8.50;;;6.93;;
18653;SDS011;9456;47.824;16.228;2024-01-30T12:33:18;7.53;;;6.50;;
18653;SDS011;9456;47.824;16.228;2024-01-30T12:35:48;7.00;;;6.20;;
18653;SDS011;9456;47.824;16.228;2024-01-30T12:38:16;6.77;;;5.60;;
18653;SDS011;9456;47.824;16.228;2024-01-30T12:40:44;7.30;;;5.50;;
18653;SDS011;9456;47.824;16.228;2024-01-30T12:43:13;7.30;;;6.27;;
18653;SDS011;9456;47.824;16.228;2024-01-30T12:45:42;7.63;;;6.03;;
18653;SDS011;9456;47.824;16.228;2024-01-30T12:48:10;9.13;;;5.43;;
18653;SDS011;9456;47.824;16.228;2024-01-30T12:50:38;7.50;;;5.80;;
18653;SDS011;9456;47.824;16.228;2024-01-30T12:53:06;6.37;;;5.77;;
18653;SDS011;9456;47.824;16.228;2024-01-30T12:55:34;7.87;;;5.93;;
18653;SDS011;9456;47.824;16.228;2024-01-30T12:58:02;7.07;;;5.87;;
18653;SDS011;9456;47.824;16.228;2024-01-30T13:00:30;7.00;;;6.30;;
18653;SDS011;9456;47.824;16.228;2024-01-30T13:02:58;12.63;;;6.40;;
18653;SDS011;9456;47.824;16.228;2024-01-30T13:05:26;8.80;;;6.20;;
18653;SDS011;9456;47.824;16.228;2024-01-30T13:07:54;7.93;;;6.33;;
18653;SDS011;9456;47.824;16.228;2024-01-30T13:10:22;7.57;;;5.93;;
18653;SDS011;9456;47.824;16.228;2024-01-30T13:12:50;6.43;;;5.83;;
18653;SDS011;9456;47.824;16.228;2024-01-30T13:15:18;7.17;;;6.33;;
18653;SDS011;9456;47.824;16.228;2024-01-30T13:17:49;7.73;;;5.90;;
18653;SDS011;9456;47.824;16.228;2024-01-30T13:20:17;8.57;;;6.43;;
18653;SDS011;9456;47.824;16.228;2024-01-30T13:22:46;5.97;;;5.10;;
18653;SDS011;9456;47.824;16.228;2024-01-30T13:25:14;7.07;;;5.80;;
18653;SDS011;9456;47.824;16.228;2024-01-30T13:27:42;8.50;;;5.40;;
18653;SDS011;9456;47.824;16.228;2024-01-30T13:30:10;6.50;;;5.60;;
18653;SDS011;9456;47.824;16.228;2024-01-30T13:32:38;8.97;;;6.17;;
18653;SDS011;9456;47.824;16.228;2024-01-30T13:35:06;8.50;;;6.67;;
18653;SDS011;9456;47.824;16.228;2024-01-30T13:37:34;6.47;;;5.57;;
18653;SDS011;9456;47.824;16.228;2024-01-30T13:40:02;6.53;;;5.93;;
18653;SDS011;9456;47.824;16.228;2024-01-30T13:42:31;6.70;;;6.00;;
18653;SDS011;9456;47.824;16.228;2024-01-30T13:44:59;8.20;;;6.33;;
18653;SDS011;9456;47.824;16.228;2024-01-30T13:47:27;8.10;;;5.73;;
18653;SDS011;9456;47.824;16.228;2024-01-30T13:49:55;6.93;;;6.33;;
18653;SDS011;9456;47.824;16.228;2024-01-30T13:52:23;6.70;;;6.00;;
18653;SDS011;9456;47.824;16.228;2024-01-30T13:54:51;8.60;;;5.80;;
18653;SDS011;9456;47.824;16.228;2024-01-30T13:57:19;6.63;;;5.97;;
18653;SDS011;9456;47.824;16.228;2024-01-30T13:59:47;7.83;;;6.57;;
18653;SDS011;9456;47.824;16.228;2024-01-30T14:02:15;7.80;;;5.93;;
18653;SDS011;9456;47.824;16.228;2024-01-30T14:04:43;7.07;;;6.37;;
18653;SDS011;9456;47.824;16.228;2024-01-30T14:07:11;6.87;;;6.17;;
18653;SDS011;9456;47.824;16.228;2024-01-30T14:09:39;7.63;;;6.23;;
18653;SDS011;9456;47.824;16.228;2024-01-30T14:12:08;10.03;;;6.50;;
18653;SDS011;9456;47.824;16.228;2024-01-30T14:14:41;7.20;;;6.47;;
18653;SDS011;9456;47.824;16.228;2024-01-30T14:17:10;7.27;;;6.33;;
18653;SDS011;9456;47.824;16.228;2024-01-30T14:19:38;8.17;;;6.83;;
18653;SDS011;9456;47.824;16.228;2024-01-30T14:22:05;8.60;;;6.67;;
18653;SDS011;9456;47.824;16.228;2024-01-30T14:24:34;9.43;;;6.67;;
18653;SDS011;9456;47.824;16.228;2024-01-30T14:27:02;6.17;;;5.57;;
18653;SDS011;9456;47.824;16.228;2024-01-30T14:29:30;7.50;;;6.00;;
18653;SDS011;9456;47.824;16.228;2024-01-30T14:31:58;7.33;;;6.43;;
18653;SDS011;9456;47.824;16.228;2024-01-30T14:34:26;8.73;;;7.07;;
18653;SDS011;9456;47.824;16.228;2024-01-30T14:36:55;8.60;;;6.30;;
18653;SDS011;9456;47.824;16.228;2024-01-30T14:39:23;7.33;;;6.63;;
18653;SDS011;9456;47.824;16.228;2024-01-30T14:41:51;7.33;;;6.30;;
18653;SDS011;9456;47.824;16.228;2024-01-30T14:44:19;7.70;;;6.57;;